Time;durP1;ratioP1;P1;durP2;ratioP2;P2;SDS_P1;SDS_P2;PMS_P1;PMS_P2;Temp;Humidity;BMP_temperature;BMP_pressure;BME280_temperature;BME280_humidity;BME280_pressure;Samples;Min_cycle;Max_cycle;Signal;HPM_P1;HPM_P2
2022/08/24 00:00:12;;;;;;;3.88;2.05;;;22.30;63.30;;;;;;5045142;28;20029;-85
2022/08/24 00:02:38;;;;;;;4.63;2.13;;;22.30;63.40;;;;;;5004290;28;20117;-84
2022/08/24 00:05:05;;;;;;;5.25;2.22;;;22.20;63.40;;;;;;5011285;28;20071;-86
2022/08/24 00:07:30;;;;;;;3.80;1.92;;;22.20;63.60;;;;;;5030226;28;20049;-87
2022/08/24 00:09:56;;;;;;;4.95;2.22;;;22.10;63.80;;;;;;5018072;28;20616;-83
2022/08/24 00:12:22;;;;;;;4.50;2.30;;;22.10;63.90;;;;;;5036397;28;20552;-84
2022/08/24 00:14:49;;;;;;;4.05;1.95;;;22.10;64.20;;;;;;5019551;28;20033;-84
2022/08/24 00:17:16;;;;;;;5.45;2.30;;;22.00;64.30;;;;;;5019441;28;20033;-84
2022/08/24 00:19:41;;;;;;;5.28;1.90;;;22.00;64.70;;;;;;5019035;28;20021;-83
2022/08/24 00:22:08;;;;;;;2.65;2.20;;;21.90;65.00;;;;;;5019660;28;20037;-86
2022/08/24 00:24:33;;;;;;;4.15;2.00;;;21.90;65.50;;;;;;5018629;28;20028;-79
2022/08/24 00:26:59;;;;;;;4.80;2.22;;;21.90;65.70;;;;;;5016035;28;20029;-78
2022/08/24 00:29:25;;;;;;;3.42;2.30;;;21.90;66.00;;;;;;5018394;28;20064;-78
2022/08/24 00:31:51;;;;;;;2.90;2.03;;;21.80;66.20;;;;;;5018685;28;20094;-78
2022/08/24 00:34:18;;;;;;;3.70;2.10;;;21.80;66.50;;;;;;5023645;28;20036;-79
2022/08/24 00:36:44;;;;;;;4.57;2.28;;;21.70;66.60;;;;;;5018071;28;20494;-79
2022/08/24 00:39:10;;;;;;;5.90;2.38;;;21.70;66.70;;;;;;5018464;28;20074;-78
2022/08/24 00:41:44;;;;;;;5.15;2.45;;;21.70;66.80;;;;;;5035478;28;20029;-79
2022/08/24 00:44:10;;;;;;;4.55;2.38;;;21.60;67.00;;;;;;5018671;28;20026;-78
2022/08/24 00:46:54;;;;;;;3.65;2.03;;;21.60;67.20;;;;;;5018314;28;20040;-79
2022/08/24 00:49:38;;;;;;;8.38;2.17;;;21.50;67.30;;;;;;5019222;28;20029;-78
2022/08/24 00:52:35;;;;;;;2.20;2.00;;;21.50;67.50;;;;;;5032827;28;20172;-79
2022/08/24 00:55:10;;;;;;;3.80;2.22;;;21.50;67.60;;;;;;5033660;28;20029;-79
2022/08/24 00:57:41;;;;;;;4.00;2.35;;;21.40;67.60;;;;;;5028539;28;20032;-80
2022/08/24 01:00:17;;;;;;;3.13;1.90;;;21.40;67.70;;;;;;5025175;28;20029;-79
2022/08/24 01:02:47;;;;;;;6.03;2.28;;;21.40;67.80;;;;;;5028838;28;20383;-79
2022/08/24 01:05:16;;;;;;;3.08;2.28;;;21.30;67.60;;;;;;5026147;28;20030;-79
2022/08/24 01:07:42;;;;;;;3.88;2.30;;;21.30;67.60;;;;;;5017763;28;20056;-79
2022/08/24 01:10:13;;;;;;;3.67;2.30;;;21.20;67.70;;;;;;5035987;28;20025;-78
2022/08/24 01:12:44;;;;;;;3.38;2.10;;;21.30;67.90;;;;;;5017661;28;20026;-79
2022/08/24 01:15:11;;;;;;;4.97;2.50;;;21.20;68.00;;;;;;5018547;28;20037;-78
2022/08/24 01:20:25;;;;;;;2.92;2.22;;;21.20;68.10;;;;;;5035329;28;20172;-79
2022/08/24 01:23:28;;;;;;;4.47;2.63;;;21.10;68.40;;;;;;5018101;28;20021;-79
2022/08/24 01:25:54;;;;;;;6.40;2.47;;;21.10;68.80;;;;;;5018460;28;20032;-79
2022/08/24 01:28:21;;;;;;;5.90;2.85;;;21.00;68.80;;;;;;5018392;28;20025;-79
2022/08/24 01:30:46;;;;;;;5.75;2.92;;;21.10;68.80;;;;;;5017299;28;20036;-78
2022/08/24 01:33:23;;;;;;;7.97;2.80;;;21.00;68.80;;;;;;5017965;28;20026;-79
2022/08/24 01:35:49;;;;;;;3.58;2.58;;;21.10;69.00;;;;;;5035941;28;20029;-79
2022/08/24 01:38:16;;;;;;;5.88;2.95;;;20.90;70.30;;;;;;5017527;28;20391;-79
2022/08/24 01:40:56;;;;;;;5.95;2.83;;;20.90;71.70;;;;;;5017417;28;20036;-79
2022/08/24 01:43:23;;;;;;;4.20;2.70;;;20.60;73.90;;;;;;5035615;28;20032;-79
2022/08/24 01:45:49;;;;;;;4.07;2.80;;;20.60;75.30;;;;;;5017486;28;20037;-78
2022/08/24 01:48:15;;;;;;;7.00;3.00;;;20.60;76.30;;;;;;5017828;28;20079;-78
2022/08/24 01:50:41;;;;;;;4.40;2.70;;;20.60;76.20;;;;;;5017243;28;20115;-78
2022/08/24 01:53:08;;;;;;;9.10;3.58;;;20.60;75.90;;;;;;5035357;28;20061;-78
2022/08/24 01:55:35;;;;;;;5.07;2.90;;;20.70;76.10;;;;;;5017179;28;20359;-78
2022/08/24 01:58:01;;;;;;;4.25;2.72;;;20.70;76.30;;;;;;5017327;28;20033;-78
2022/08/24 02:00:27;;;;;;;3.83;2.90;;;20.70;75.90;;;;;;5016961;28;20040;-78
2022/08/24 02:02:55;;;;;;;4.10;2.63;;;20.60;74.20;;;;;;5017407;28;20193;-78
2022/08/24 02:05:22;;;;;;;5.97;2.75;;;20.50;73.30;;;;;;5017420;28;20025;-78
2022/08/24 02:07:48;;;;;;;5.03;2.70;;;20.50;73.00;;;;;;5034221;28;20045;-78
2022/08/24 02:10:15;;;;;;;6.32;2.70;;;20.50;73.10;;;;;;5034689;28;20033;-78
2022/08/24 02:12:43;;;;;;;3.78;2.60;;;20.40;73.00;;;;;;5016767;28;20036;-78
2022/08/24 02:15:09;;;;;;;3.72;2.38;;;20.40;72.90;;;;;;5016925;28;20025;-78
2022/08/24 02:17:36;;;;;;;7.75;2.88;;;20.40;72.90;;;;;;5016517;28;20038;-78
2022/08/24 02:20:04;;;;;;;4.50;2.30;;;20.40;72.90;;;;;;5016894;28;20036;-78
2022/08/24 02:22:29;;;;;;;5.22;2.45;;;20.30;72.90;;;;;;5016502;28;20049;-79
2022/08/24 02:24:55;;;;;;;5.85;2.45;;;20.20;73.00;;;;;;5017257;28;20061;-78
2022/08/24 02:27:21;;;;;;;4.63;2.47;;;20.20;73.20;;;;;;5034424;28;20060;-78
2022/08/24 02:29:46;;;;;;;3.05;2.58;;;20.20;73.30;;;;;;5016421;28;20034;-78
2022/08/24 02:32:12;;;;;;;5.40;2.60;;;20.20;73.40;;;;;;5033652;28;20053;-78
2022/08/24 02:34:38;;;;;;;5.15;2.50;;;20.20;73.60;;;;;;5016112;28;20032;-79
2022/08/24 02:37:04;;;;;;;7.15;2.80;;;20.20;73.70;;;;;;5034361;28;20394;-78
2022/08/24 02:39:30;;;;;;;5.60;3.25;;;20.20;73.90;;;;;;5016375;28;20040;-79
2022/08/24 02:41:56;;;;;;;5.03;2.38;;;20.10;74.10;;;;;;5034328;28;20022;-78
2022/08/24 02:44:22;;;;;;;4.30;2.90;;;20.10;74.30;;;;;;5034172;28;20034;-78
2022/08/24 02:46:48;;;;;;;4.15;2.80;;;19.90;74.80;;;;;;5016043;28;20129;-78
2022/08/24 02:49:14;;;;;;;5.38;2.78;;;19.90;74.90;;;;;;5016509;28;20079;-78
2022/08/24 02:51:43;;;;;;;6.03;3.13;;;20.00;74.90;;;;;;5015945;28;20026;-78
2022/08/24 02:54:09;;;;;;;5.20;2.60;;;20.00;74.60;;;;;;5016528;28;20538;-78
2022/08/24 02:56:34;;;;;;;4.50;2.80;;;19.90;74.70;;;;;;5033223;28;20104;-78
2022/08/24 02:59:01;;;;;;;4.05;2.58;;;20.00;74.80;;;;;;5033812;28;20451;-78
2022/08/24 03:01:27;;;;;;;4.65;2.58;;;20.00;74.50;;;;;;5033843;28;20057;-78
2022/08/24 03:03:53;;;;;;;6.32;2.83;;;20.00;74.30;;;;;;5015992;28;20032;-76
2022/08/24 03:06:20;;;;;;;7.90;2.60;;;20.00;74.30;;;;;;5016153;28;20116;-76
2022/08/24 03:08:45;;;;;;;6.50;2.53;;;19.90;74.50;;;;;;5012094;28;20081;-78
2022/08/24 03:11:11;;;;;;;4.15;2.65;;;19.80;74.50;;;;;;5012708;28;20484;-78
2022/08/24 03:13:38;;;;;;;4.65;2.70;;;19.80;74.60;;;;;;5013545;28;20026;-78
2022/08/24 03:16:05;;;;;;;4.88;2.40;;;19.70;74.80;;;;;;5012801;28;20367;-78
2022/08/24 03:18:31;;;;;;;5.82;2.50;;;19.70;75.20;;;;;;5013490;28;20030;-79
2022/08/24 03:20:58;;;;;;;6.72;3.03;;;19.60;75.20;;;;;;5012837;28;20100;-78
2022/08/24 03:23:25;;;;;;;7.90;3.00;;;19.70;75.40;;;;;;5012902;28;20481;-79
2022/08/24 03:25:51;;;;;;;3.97;2.70;;;19.60;75.50;;;;;;5012357;28;20459;-79
2022/08/24 03:28:18;;;;;;;3.67;2.90;;;19.60;75.70;;;;;;5013958;28;20026;-78
2022/08/24 03:30:44;;;;;;;5.43;3.05;;;19.50;75.80;;;;;;5012354;28;20030;-79
2022/08/24 03:33:10;;;;;;;4.32;3.00;;;19.50;75.90;;;;;;5012916;28;20360;-78
2022/08/24 03:35:36;;;;;;;4.25;2.70;;;19.50;76.00;;;;;;5012195;28;20033;-78
2022/08/24 03:38:03;;;;;;;6.57;2.78;;;19.40;76.30;;;;;;5013193;28;20034;-78
2022/08/24 03:40:31;;;;;;;5.60;2.70;;;19.40;76.30;;;;;;5012621;28;20038;-79
2022/08/24 03:42:58;;;;;;;6.22;2.40;;;19.40;76.40;;;;;;5012776;28;20034;-78
2022/08/24 03:45:24;;;;;;;4.55;2.70;;;19.40;76.40;;;;;;5012273;28;20022;-77
2022/08/24 03:47:50;;;;;;;4.88;2.72;;;19.40;76.40;;;;;;5012011;28;20041;-78
2022/08/24 03:50:16;;;;;;;4.07;2.53;;;19.40;76.50;;;;;;5013532;28;20419;-78
2022/08/24 03:52:42;;;;;;;3.30;2.63;;;19.40;76.50;;;;;;5012171;28;20026;-79
2022/08/24 03:55:09;;;;;;;4.28;2.33;;;19.30;76.60;;;;;;5012540;28;20073;-78
2022/08/24 03:57:35;;;;;;;4.18;2.58;;;19.30;76.80;;;;;;5012118;28;20040;-78
2022/08/24 04:00:03;;;;;;;4.35;2.58;;;19.30;76.90;;;;;;5012618;28;20121;-78
2022/08/24 04:02:28;;;;;;;3.13;2.40;;;19.30;76.90;;;;;;5012580;28;20502;-78
2022/08/24 04:04:54;;;;;;;3.65;2.38;;;19.30;77.00;;;;;;5011853;28;20026;-78
2022/08/24 04:07:20;;;;;;;4.40;2.53;;;19.30;76.90;;;;;;5017722;28;20399;-78
2022/08/24 04:09:45;;;;;;;6.53;2.75;;;19.30;76.90;;;;;;5015089;28;20030;-78
2022/08/24 04:12:11;;;;;;;5.07;2.75;;;19.30;77.00;;;;;;5015594;28;20477;-78
2022/08/24 04:14:37;;;;;;;4.28;2.55;;;19.30;76.90;;;;;;5015167;28;20040;-79
2022/08/24 04:17:03;;;;;;;6.90;2.50;;;19.30;77.00;;;;;;5015416;28;20037;-78
2022/08/24 04:19:29;;;;;;;4.97;2.58;;;19.30;77.00;;;;;;5015467;28;20029;-77
2022/08/24 04:21:57;;;;;;;5.15;2.70;;;19.30;77.20;;;;;;5014949;28;20116;-78
2022/08/24 04:24:24;;;;;;;3.88;2.28;;;19.30;77.30;;;;;;5032970;28;20040;-77
2022/08/24 04:26:50;;;;;;;4.45;2.17;;;19.30;77.50;;;;;;5015193;28;20372;-77
2022/08/24 04:29:18;;;;;;;3.97;2.60;;;19.30;77.60;;;;;;5015232;28;20079;-78
2022/08/24 04:31:44;;;;;;;6.47;2.70;;;19.30;78.00;;;;;;5032400;28;20479;-78
2022/08/24 04:34:11;;;;;;;8.70;2.92;;;19.30;77.80;;;;;;5015506;28;20025;-78
2022/08/24 04:36:39;;;;;;;4.70;3.13;;;19.30;78.00;;;;;;5014771;28;20044;-79
2022/08/24 04:39:05;;;;;;;6.47;2.45;;;19.30;78.00;;;;;;5015200;28;20033;-77
2022/08/24 04:41:31;;;;;;;7.20;2.90;;;19.30;77.90;;;;;;5032693;28;20036;-78
2022/08/24 04:43:56;;;;;;;5.47;3.10;;;19.30;77.80;;;;;;5014573;28;20025;-78
2022/08/24 04:46:22;;;;;;;7.13;2.95;;;19.40;77.80;;;;;;5032776;28;20026;-78
2022/08/24 04:48:49;;;;;;;5.60;2.83;;;19.40;77.60;;;;;;5032293;28;20029;-78
2022/08/24 04:51:19;;;;;;;5.80;2.75;;;19.40;77.60;;;;;;5015475;28;20026;-77
2022/08/24 04:53:46;;;;;;;5.10;2.67;;;19.40;77.70;;;;;;5014671;28;20048;-78
2022/08/24 04:56:15;;;;;;;3.72;2.53;;;19.40;77.60;;;;;;5016458;28;20037;-78
2022/08/24 04:58:41;;;;;;;5.53;2.70;;;19.40;77.80;;;;;;5017799;28;20022;-77
2022/08/24 05:01:14;;;;;;;4.75;2.47;;;19.40;77.80;;;;;;5018565;28;20029;-77
2022/08/24 05:03:42;;;;;;;4.00;2.42;;;19.40;77.90;;;;;;5018182;28;20179;-77
2022/08/24 05:06:11;;;;;;;6.18;2.75;;;19.40;78.70;;;;;;5035843;28;20037;-78
2022/08/24 05:08:36;;;;;;;4.28;2.88;;;19.50;78.20;;;;;;5035044;28;20080;-80
2022/08/24 05:11:06;;;;;;;5.25;2.72;;;19.40;78.40;;;;;;5018752;28;20115;-77
2022/08/24 05:13:32;;;;;;;5.53;2.60;;;19.50;78.70;;;;;;5018388;28;20171;-77
2022/08/24 05:15:57;;;;;;;5.80;2.90;;;19.50;79.10;;;;;;5017591;28;20088;-77
2022/08/24 05:18:23;;;;;;;4.75;2.47;;;19.50;79.40;;;;;;5035952;28;20485;-77
2022/08/24 05:20:49;;;;;;;3.40;2.47;;;19.50;79.30;;;;;;5035374;28;20435;-78
2022/08/24 05:23:14;;;;;;;5.43;2.70;;;19.50;79.20;;;;;;5018211;28;20028;-77
2022/08/24 05:25:41;;;;;;;6.70;2.58;;;19.60;79.20;;;;;;5017781;28;20574;-78
2022/08/24 05:28:07;;;;;;;6.80;2.72;;;19.60;79.20;;;;;;5018304;28;20044;-78
2022/08/24 05:30:33;;;;;;;4.10;2.90;;;19.60;79.10;;;;;;5018012;28;20033;-78
2022/08/24 05:32:59;;;;;;;5.28;2.80;;;19.60;79.10;;;;;;5017506;28;20025;-78
2022/08/24 05:35:24;;;;;;;6.03;2.80;;;19.60;79.20;;;;;;5018169;28;20022;-78
2022/08/24 05:37:50;;;;;;;3.35;2.70;;;19.60;79.30;;;;;;5017157;28;20064;-78
2022/08/24 05:40:18;;;;;;;5.10;2.80;;;19.60;79.50;;;;;;5017956;28;20029;-78
2022/08/24 05:42:44;;;;;;;6.03;2.80;;;19.60;79.50;;;;;;5017215;28;20025;-79
2022/08/24 05:45:10;;;;;;;5.32;2.80;;;19.70;79.90;;;;;;5035330;28;20034;-78
2022/08/24 05:47:36;;;;;;;6.53;2.95;;;19.60;80.20;;;;;;5035346;28;20529;-78
2022/08/24 05:50:02;;;;;;;7.35;2.90;;;19.70;80.30;;;;;;5017104;28;20029;-78
2022/08/24 05:52:28;;;;;;;7.90;3.33;;;19.70;80.60;;;;;;5017601;28;20499;-78
2022/08/24 05:54:56;;;;;;;9.65;3.80;;;19.70;80.80;;;;;;5017134;28;20235;-78
2022/08/24 05:57:23;;;;;;;5.93;3.20;;;19.70;80.90;;;;;;5017353;28;20136;-79
2022/08/24 05:59:49;;;;;;;7.47;3.65;;;19.70;80.90;;;;;;5017001;28;20465;-78
2022/08/24 06:02:16;;;;;;;7.03;3.50;;;19.70;80.80;;;;;;5017293;28;20033;-77
2022/08/24 06:04:43;;;;;;;7.53;3.80;;;19.70;80.80;;;;;;5016958;28;20025;-78
2022/08/24 06:07:10;;;;;;;6.47;3.40;;;19.70;80.70;;;;;;5016643;28;20467;-78
2022/08/24 06:09:38;;;;;;;10.05;3.45;;;19.70;81.00;;;;;;5017392;28;20088;-78
2022/08/24 06:12:04;;;;;;;9.43;3.10;;;19.70;81.10;;;;;;5034298;28;20080;-77
2022/08/24 06:14:32;;;;;;;7.55;3.22;;;19.70;81.30;;;;;;5017179;28;20025;-77
2022/08/24 06:16:58;;;;;;;6.10;3.05;;;19.70;81.10;;;;;;5016518;28;20490;-78
2022/08/24 06:19:25;;;;;;;6.15;3.58;;;19.80;81.50;;;;;;5034826;28;20030;-78
2022/08/24 06:21:52;;;;;;;4.03;2.72;;;19.80;81.70;;;;;;5016532;28;20125;-78
2022/08/24 06:27:19;;;;;;;5.25;3.00;;;19.80;81.70;;;;;;5017027;28;20026;-78
2022/08/24 06:27:22;;;;;;;11.60;3.10;;;19.90;82.30;;;;;;5033688;28;20108;-78
2022/08/24 06:29:53;;;;;;;4.78;3.03;;;19.90;81.30;;;;;;5016793;28;20029;-78
2022/08/24 06:32:19;;;;;;;7.72;2.92;;;19.90;81.30;;;;;;5034338;28;20036;-77
2022/08/24 06:34:45;;;;;;;5.60;2.75;;;19.90;81.00;;;;;;5016160;28;20390;-78
2022/08/24 06:37:11;;;;;;;4.50;2.53;;;20.00;80.90;;;;;;5016526;28;20038;-78
2022/08/24 06:39:37;;;;;;;6.10;2.53;;;20.00;80.70;;;;;;5016537;28;20041;-78
2022/08/24 06:42:03;;;;;;;4.03;2.70;;;20.10;80.90;;;;;;5016129;28;20098;-78
2022/08/24 06:44:30;;;;;;;9.02;3.10;;;20.10;80.60;;;;;;5016558;28;20021;-78
2022/08/24 06:46:56;;;;;;;6.57;2.70;;;20.20;80.80;;;;;;5033587;28;20074;-78
2022/08/24 06:49:23;;;;;;;4.82;2.40;;;20.20;80.50;;;;;;5016866;28;20451;-79
2022/08/24 06:51:49;;;;;;;7.18;2.50;;;20.30;80.30;;;;;;5016359;28;20025;-78
2022/08/24 06:54:15;;;;;;;5.05;2.70;;;20.30;80.10;;;;;;5016544;28;20459;-78
2022/08/24 06:56:41;;;;;;;4.13;2.50;;;20.40;80.10;;;;;;5034315;28;20040;-78
2022/08/24 06:59:07;;;;;;;4.05;2.35;;;20.40;79.80;;;;;;5016438;28;20029;-79
2022/08/24 07:01:32;;;;;;;4.28;2.40;;;20.50;79.70;;;;;;5016660;28;20040;-78
2022/08/24 07:03:58;;;;;;;4.75;2.58;;;20.50;79.60;;;;;;5033211;28;20026;-78
2022/08/24 07:06:24;;;;;;;3.45;2.20;;;20.50;79.60;;;;;;5015969;28;20034;-78
2022/08/24 07:08:50;;;;;;;4.82;2.60;;;20.60;79.50;;;;;;5033177;28;20045;-78
2022/08/24 07:11:17;;;;;;;4.65;2.35;;;20.70;79.90;;;;;;5015527;28;20033;-77
2022/08/24 07:13:46;;;;;;;6.22;2.58;;;20.80;79.20;;;;;;5015559;28;20033;-83
2022/08/24 07:16:12;;;;;;;19.40;2.75;;;20.80;78.80;;;;;;5015837;28;20388;-78
2022/08/24 07:18:38;;;;;;;7.00;2.53;;;20.90;78.60;;;;;;5015023;28;20064;-78
2022/08/24 07:21:04;;;;;;;4.53;2.50;;;20.90;78.50;;;;;;5015314;28;20210;-78
2022/08/24 07:23:30;;;;;;;4.53;2.15;;;21.00;78.50;;;;;;5015824;28;20030;-78
2022/08/24 07:25:55;;;;;;;2.55;2.10;;;21.00;78.20;;;;;;5015087;28;20044;-77
2022/08/24 07:28:22;;;;;;;4.18;2.15;;;21.10;78.10;;;;;;5015728;28;20481;-77
2022/08/24 07:30:47;;;;;;;5.53;2.40;;;21.20;78.10;;;;;;5015006;28;20438;-78
2022/08/24 07:33:13;;;;;;;3.83;2.28;;;21.20;77.90;;;;;;5015608;28;20176;-77
2022/08/24 07:35:39;;;;;;;5.65;2.13;;;21.30;77.50;;;;;;5015694;28;20032;-77
2022/08/24 07:38:06;;;;;;;5.45;1.98;;;21.40;77.30;;;;;;5014891;28;20045;-77
2022/08/24 07:40:32;;;;;;;4.70;2.33;;;21.40;77.00;;;;;;5015236;28;20040;-77
2022/08/24 07:42:58;;;;;;;3.15;2.00;;;21.50;76.60;;;;;;5015004;28;20025;-77
2022/08/24 07:45:25;;;;;;;3.97;2.30;;;21.50;76.30;;;;;;5015403;28;20382;-77
2022/08/24 07:47:51;;;;;;;4.60;2.55;;;21.60;76.10;;;;;;5015019;28;20120;-77
2022/08/24 07:50:17;;;;;;;4.15;2.13;;;21.60;76.10;;;;;;5015531;28;20076;-78
2022/08/24 07:52:44;;;;;;;4.10;2.70;;;21.70;75.70;;;;;;5033170;28;20026;-77
2022/08/24 07:55:12;;;;;;;8.73;3.83;;;21.80;75.60;;;;;;5015047;28;20026;-78
2022/08/24 07:57:39;;;;;;;6.93;2.60;;;21.80;75.50;;;;;;5015238;28;20037;-78
2022/08/24 08:00:11;;;;;;;3.70;2.10;;;21.90;75.20;;;;;;5015082;28;20087;-78
2022/08/24 08:02:37;;;;;;;3.53;2.10;;;21.90;75.10;;;;;;5015623;28;20065;-78
2022/08/24 08:05:04;;;;;;;4.78;2.00;;;22.00;75.10;;;;;;5015134;28;20455;-79
2022/08/24 08:07:30;;;;;;;4.35;2.20;;;22.10;75.00;;;;;;5002396;28;20072;-79
2022/08/24 08:09:55;;;;;;;6.20;2.10;;;22.10;74.50;;;;;;5011915;28;20535;-79
2022/08/24 08:12:21;;;;;;;3.25;1.98;;;22.20;74.70;;;;;;5012403;28;20391;-79
2022/08/24 08:14:47;;;;;;;5.65;2.10;;;22.20;74.40;;;;;;5013154;28;20030;-84
2022/08/24 08:17:13;;;;;;;4.85;2.10;;;22.30;74.40;;;;;;5012477;28;20184;-79
2022/08/24 08:19:40;;;;;;;2.90;1.92;;;22.50;74.10;;;;;;5012446;28;20022;-79
2022/08/24 08:24:50;;;;;;;4.35;2.42;;;22.50;73.50;;;;;;5012827;28;20076;-80
2022/08/24 08:27:16;;;;;;;4.13;1.98;;;22.60;73.60;;;;;;5011929;28;20057;-78
2022/08/24 08:29:42;;;;;;;7.97;2.70;;;22.60;73.60;;;;;;5011952;28;20026;-78
2022/08/24 08:32:13;;;;;;;2.83;1.90;;;22.70;73.40;;;;;;5014178;28;20252;-79
2022/08/24 08:34:39;;;;;;;3.72;2.00;;;22.70;73.30;;;;;;5015892;28;20071;-79
2022/08/24 08:37:05;;;;;;;7.82;2.28;;;22.80;73.30;;;;;;5031504;28;20521;-79
2022/08/24 08:39:30;;;;;;;2.75;1.98;;;22.90;73.40;;;;;;5015668;28;20040;-79
2022/08/24 08:42:22;;;;;;;3.95;2.40;;;23.00;72.80;;;;;;5031826;28;20022;-79
2022/08/24 08:44:54;;;;;;;2.33;1.80;;;23.00;72.50;;;;;;5015444;28;20488;-79
2022/08/24 08:47:42;;;;;;;5.80;1.98;;;23.10;72.50;;;;;;5016452;28;20053;-78
2022/08/24 08:50:13;;;;;;;5.07;2.13;;;23.10;72.40;;;;;;5015003;28;20026;-78
2022/08/24 08:53:02;;;;;;;2.47;1.80;;;23.20;71.80;;;;;;5015175;28;20036;-79
2022/08/24 08:55:37;;;;;;;3.42;1.65;;;23.40;71.40;;;;;;5015574;28;20479;-78
2022/08/24 08:58:11;;;;;;;4.15;1.95;;;23.40;70.90;;;;;;5014692;28;20070;-79
2022/08/24 09:00:51;;;;;;;4.35;1.85;;;23.50;70.70;;;;;;5016316;28;20034;-78
2022/08/24 09:03:25;;;;;;;5.35;1.75;;;23.50;70.00;;;;;;5015486;28;20026;-79
2022/08/24 09:06:35;;;;;;;4.43;2.13;;;23.60;69.70;;;;;;5014486;28;20034;-80
2022/08/24 09:09:15;;;;;;;6.50;1.50;;;23.80;69.00;;;;;;5018047;28;20054;-79
2022/08/24 09:11:56;;;;;;;4.22;1.52;;;23.80;68.40;;;;;;5018534;28;20032;-78
2022/08/24 09:15:06;;;;;;;3.15;1.70;;;24.00;68.70;;;;;;5036268;28;20026;-79
2022/08/24 09:17:50;;;;;;;5.43;1.58;;;24.00;68.60;;;;;;5015348;28;20041;-79
2022/08/24 09:20:18;;;;;;;4.78;1.60;;;24.10;68.20;;;;;;5018159;28;20022;-79
2022/08/24 09:22:47;;;;;;;2.75;1.77;;;24.10;67.80;;;;;;5018372;28;20025;-79
2022/08/24 09:25:23;;;;;;;2.10;1.50;;;24.10;67.90;;;;;;5017282;28;20025;-79
2022/08/24 09:28:01;;;;;;;2.83;1.95;;;24.10;67.10;;;;;;5031868;28;20466;-79
2022/08/24 09:30:49;;;;;;;3.63;1.52;;;24.20;66.90;;;;;;5033419;28;20462;-79
2022/08/24 09:33:24;;;;;;;2.80;1.50;;;24.30;66.60;;;;;;5033876;28;20096;-80
2022/08/24 09:35:49;;;;;;;3.33;1.70;;;24.40;66.20;;;;;;5024349;28;20029;-80
2022/08/24 09:38:22;;;;;;;3.15;1.55;;;24.50;65.80;;;;;;5026137;28;20045;-79
2022/08/24 09:40:54;;;;;;;3.78;2.00;;;24.70;64.90;;;;;;5017062;28;20037;-79
2022/08/24 09:43:32;;;;;;;3.28;1.35;;;24.70;64.80;;;;;;5030935;28;20032;-80
2022/08/24 09:46:35;;;;;;;3.85;1.55;;;24.70;63.70;;;;;;5030670;28;20056;-80
2022/08/24 09:49:19;;;;;;;2.08;1.23;;;24.90;62.70;;;;;;5031607;28;20029;-80
2022/08/24 09:52:20;;;;;;;4.05;1.52;;;25.00;62.00;;;;;;5017390;28;20025;-80
2022/08/24 09:54:58;;;;;;;4.30;1.23;;;25.10;61.40;;;;;;5027776;28;20467;-79
2022/08/24 09:57:51;;;;;;;2.22;1.23;;;25.20;60.90;;;;;;5028248;28;20037;-79
2022/08/24 10:00:29;;;;;;;2.97;1.67;;;25.40;60.50;;;;;;5010247;28;20022;-80
2022/08/24 10:03:01;;;;;;;3.42;1.45;;;25.40;59.80;;;;;;4999874;28;20037;-88
2022/08/24 10:05:53;;;;;;;1.83;0.98;;;25.40;59.30;;;;;;5017608;28;20052;-85
2022/08/24 10:08:21;;;;;;;4.53;1.10;;;25.60;58.80;;;;;;5004137;28;20192;-85
2022/08/24 10:11:13;;;;;;;1.60;0.90;;;25.60;58.60;;;;;;5013878;28;20041;-85
2022/08/24 10:13:50;;;;;;;3.20;1.25;;;25.80;58.00;;;;;;5005525;28;20022;-83
2022/08/24 10:16:37;;;;;;;3.60;1.17;;;25.80;58.00;;;;;;5021806;28;20539;-84
2022/08/24 10:19:21;;;;;;;1.17;1.02;;;25.90;57.90;;;;;;5011406;28;20056;-82
2022/08/24 10:22:27;;;;;;;1.33;0.88;;;26.00;57.40;;;;;;5034213;28;20060;-82
2022/08/24 10:25:08;;;;;;;1.90;0.90;;;26.10;56.30;;;;;;5025143;28;20123;-82
2022/08/24 10:28:01;;;;;;;4.65;1.25;;;26.20;56.60;;;;;;5010209;28;20032;-86
2022/08/24 10:30:59;;;;;;;2.88;1.00;;;26.20;56.70;;;;;;5012110;28;20465;-84
2022/08/24 10:33:29;;;;;;;1.20;0.90;;;26.20;56.00;;;;;;4974601;28;20029;-85
2022/08/24 10:36:17;;;;;;;2.50;0.88;;;26.30;55.80;;;;;;5016648;28;20466;-85
2022/08/24 10:43:32;;;;;;;3.00;1.10;;;26.50;55.30;;;;;;5033416;28;20041;-86
2022/08/24 10:45:37;;;;;;;1.17;1.00;;;26.50;55.00;;;;;;5031737;28;20073;-85
2022/08/24 10:48:26;;;;;;;2.90;1.25;;;26.30;55.50;;;;;;4965923;28;20400;-79
2022/08/24 10:51:23;;;;;;;3.17;2.03;;;26.50;55.10;;;;;;5015422;28;20036;-79
2022/08/24 10:54:03;;;;;;;4.20;1.30;;;26.60;54.90;;;;;;5109822;27;20402;-77
2022/08/24 10:57:02;;;;;;;1.55;1.00;;;26.70;54.90;;;;;;5094104;28;20535;-78
2022/08/24 10:59:39;;;;;;;2.50;1.00;;;26.60;54.60;;;;;;5107280;28;20031;-77
2022/08/24 11:02:08;;;;;;;1.40;1.20;;;26.80;54.90;;;;;;5109210;28;20032;-77
2022/08/24 11:04:35;;;;;;;1.20;1.10;;;26.90;54.00;;;;;;5093493;28;20115;-77
2022/08/24 11:07:15;;;;;;;1.58;0.95;;;27.00;53.50;;;;;;5109971;28;20103;-81
2022/08/24 11:09:43;;;;;;;1.63;0.90;;;27.20;52.90;;;;;;5101820;28;20380;-81
2022/08/24 11:12:23;;;;;;;1.58;0.90;;;27.30;52.80;;;;;;5101456;28;20036;-82
2022/08/24 11:14:50;;;;;;;1.98;0.80;;;27.30;53.00;;;;;;5106618;28;20357;-83
2022/08/24 11:17:19;;;;;;;2.58;1.30;;;27.30;53.30;;;;;;5094695;28;20410;-83
2022/08/24 11:19:44;;;;;;;1.70;1.02;;;27.50;52.70;;;;;;5110954;28;20023;-82
2022/08/24 11:22:30;;;;;;;2.03;1.30;;;27.70;52.10;;;;;;5110621;28;20090;-81
2022/08/24 11:25:01;;;;;;;4.93;1.00;;;27.80;52.00;;;;;;5102957;28;20028;-84
2022/08/24 11:27:37;;;;;;;1.48;1.00;;;27.90;52.10;;;;;;5110042;28;20070;-83
2022/08/24 11:30:11;;;;;;;1.15;0.95;;;27.90;51.60;;;;;;5109118;28;20028;-78
2022/08/24 11:32:46;;;;;;;195.85;131.95;;;28.10;52.10;;;;;;5108574;28;20488;-79
2022/08/24 11:35:20;;;;;;;87.15;51.20;;;28.20;52.30;;;;;;5124877;28;20031;-80
2022/08/24 11:37:47;;;;;;;16.90;11.73;;;28.30;52.20;;;;;;5109813;28;20034;-81
2022/08/24 11:40:14;;;;;;;5.75;4.18;;;28.30;51.90;;;;;;5096749;28;20039;-83
2022/08/24 11:42:52;;;;;;;3.20;2.50;;;28.50;51.90;;;;;;5106371;28;20028;-81
2022/08/24 11:46:00;;;;;;;4.13;1.45;;;28.50;52.00;;;;;;5094635;28;20016;-81
2022/08/24 11:48:40;;;;;;;2.22;1.13;;;28.70;51.60;;;;;;5094442;28;20035;-81
2022/08/24 11:51:10;;;;;;;4.75;1.10;;;28.80;51.40;;;;;;5089164;28;20025;-81
2022/08/24 11:53:51;;;;;;;2.97;1.30;;;28.90;51.50;;;;;;5097781;28;20557;-82
2022/08/24 11:56:30;;;;;;;2.08;1.15;;;29.10;51.10;;;;;;5125889;28;20024;-81
2022/08/24 11:59:27;;;;;;;3.35;1.30;;;29.30;51.30;;;;;;5109517;28;20038;-85
2022/08/24 12:01:58;;;;;;;2.90;1.50;;;29.30;51.20;;;;;;5093695;28;20041;-86
2022/08/24 12:04:45;;;;;;;3.58;1.20;;;29.30;51.70;;;;;;5081555;28;20020;-84
2022/08/24 12:07:20;;;;;;;5.97;1.30;;;29.40;51.30;;;;;;5079155;28;20072;-84
2022/08/24 12:10:10;;;;;;;3.00;1.40;;;29.60;51.20;;;;;;5095097;28;20028;-84
2022/08/24 12:12:52;;;;;;;2.53;0.90;;;29.70;51.00;;;;;;5078977;28;20032;-84
2022/08/24 12:15:50;;;;;;;3.45;1.35;;;29.90;50.80;;;;;;5081488;28;20044;-84
2022/08/24 12:19:03;;;;;;;3.45;1.20;;;30.10;50.70;;;;;;5094399;28;20059;-83
2022/08/24 12:21:32;;;;;;;2.35;1.60;;;30.10;50.10;;;;;;5082965;28;20032;-85
2022/08/24 12:24:10;;;;;;;5.35;1.75;;;30.20;50.50;;;;;;5085557;28;20132;-84
2022/08/24 12:26:37;;;;;;;1.50;1.13;;;30.30;49.90;;;;;;5096268;28;20028;-85
2022/08/24 12:29:32;;;;;;;2.10;1.20;;;30.40;50.00;;;;;;5083045;28;20024;-85
2022/08/24 12:32:01;;;;;;;2.00;1.27;;;30.60;49.30;;;;;;5075748;28;20374;-83
2022/08/24 12:34:42;;;;;;;2.88;1.17;;;30.80;48.80;;;;;;5096039;28;20078;-82
2022/08/24 12:37:33;;;;;;;6.38;1.42;;;31.00;48.50;;;;;;5077781;28;20024;-83
2022/08/24 12:40:28;;;;;;;2.25;1.23;;;31.20;48.40;;;;;;5094264;28;20457;-82
2022/08/24 12:43:05;;;;;;;2.92;1.13;;;31.30;48.20;;;;;;5069691;28;20036;-83
2022/08/24 12:45:31;;;;;;;2.10;1.10;;;31.50;48.20;;;;;;5094778;28;20031;-80
2022/08/24 12:48:16;;;;;;;3.85;1.40;;;31.60;48.10;;;;;;5083263;28;20028;-83
2022/08/24 12:51:08;;;;;;;5.30;1.20;;;31.70;48.00;;;;;;5091053;28;20020;-82
2022/08/24 12:53:33;;;;;;;3.30;1.00;;;32.00;47.10;;;;;;5081475;28;20096;-79
2022/08/24 12:56:27;;;;;;;1.88;1.00;;;32.20;47.30;;;;;;5111012;28;20415;-84
2022/08/24 12:59:21;;;;;;;3.33;1.30;;;32.30;46.60;;;;;;5095451;28;20063;-89
2022/08/24 13:02:07;;;;;;;1.77;1.23;;;32.50;46.80;;;;;;5086265;28;20067;-88
2022/08/24 13:04:53;;;;;;;4.43;1.48;;;32.50;46.40;;;;;;5091360;28;20365;-80
2022/08/24 13:07:21;;;;;;;3.22;1.30;;;32.60;46.30;;;;;;5095312;28;20028;-82
2022/08/24 13:10:05;;;;;;;2.28;1.10;;;32.80;46.00;;;;;;5084684;28;20028;-83
2022/08/24 13:12:42;;;;;;;1.95;1.10;;;33.00;45.50;;;;;;5090102;28;20020;-83
2022/08/24 13:15:24;;;;;;;3.25;1.00;;;33.10;45.30;;;;;;5078255;28;20024;-83
2022/08/24 13:17:49;;;;;;;2.72;1.13;;;33.30;45.00;;;;;;5084423;28;20055;-81